sensor_id;sensor_type;location;lat;lon;timestamp;P1;durP1;ratioP1;P2;durP2;ratioP2
14306;SDS011;7237;49.500;11.400;2022-12-07T00:01:18;4.80;;;4.37;;
14306;SDS011;7237;49.500;11.400;2022-12-07T00:03:47;5.30;;;4.80;;
14306;SDS011;7237;49.500;11.400;2022-12-07T00:06:15;5.00;;;4.60;;
14306;SDS011;7237;49.500;11.400;2022-12-07T00:08:43;6.30;;;4.90;;
14306;SDS011;7237;49.500;11.400;2022-12-07T00:11:10;5.10;;;4.70;;
14306;SDS011;7237;49.500;11.400;2022-12-07T00:13:38;5.27;;;4.77;;
14306;SDS011;7237;49.500;11.400;2022-12-07T00:16:06;4.33;;;3.93;;
14306;SDS011;7237;49.500;11.400;2022-12-07T00:18:34;5.90;;;4.47;;
14306;SDS011;7237;49.500;11.400;2022-12-07T00:21:03;4.97;;;4.47;;
14306;SDS011;7237;49.500;11.400;2022-12-07T00:23:31;5.30;;;4.80;;
14306;SDS011;7237;49.500;11.400;2022-12-07T00:26:02;4.27;;;3.87;;
14306;SDS011;7237;49.500;11.400;2022-12-07T00:28:30;5.00;;;4.50;;
14306;SDS011;7237;49.500;11.400;2022-12-07T00:30:59;5.13;;;4.63;;
14306;SDS011;7237;49.500;11.400;2022-12-07T00:33:27;4.97;;;4.57;;
14306;SDS011;7237;49.500;11.400;2022-12-07T00:35:54;4.70;;;4.30;;
14306;SDS011;7237;49.500;11.400;2022-12-07T00:38:23;4.93;;;4.43;;
14306;SDS011;7237;49.500;11.400;2022-12-07T00:40:53;4.70;;;4.30;;
14306;SDS011;7237;49.500;11.400;2022-12-07T00:43:21;5.20;;;4.80;;
14306;SDS011;7237;49.500;11.400;2022-12-07T00:45:48;5.10;;;4.47;;
14306;SDS011;7237;49.500;11.400;2022-12-07T00:48:15;5.27;;;4.77;;
14306;SDS011;7237;49.500;11.400;2022-12-07T00:50:42;4.93;;;4.53;;
14306;SDS011;7237;49.500;11.400;2022-12-07T00:53:09;5.33;;;4.93;;
14306;SDS011;7237;49.500;11.400;2022-12-07T00:55:37;5.53;;;4.13;;
14306;SDS011;7237;49.500;11.400;2022-12-07T00:58:05;5.80;;;5.27;;
14306;SDS011;7237;49.500;11.400;2022-12-07T01:00:32;5.23;;;4.73;;
14306;SDS011;7237;49.500;11.400;2022-12-07T01:02:59;5.93;;;5.00;;
14306;SDS011;7237;49.500;11.400;2022-12-07T01:05:26;5.23;;;4.73;;
14306;SDS011;7237;49.500;11.400;2022-12-07T01:07:53;4.80;;;4.40;;
14306;SDS011;7237;49.500;11.400;2022-12-07T01:10:21;5.13;;;4.60;;
14306;SDS011;7237;49.500;11.400;2022-12-07T01:12:49;4.60;;;4.20;;
14306;SDS011;7237;49.500;11.400;2022-12-07T01:15:16;5.40;;;4.90;;
14306;SDS011;7237;49.500;11.400;2022-12-07T01:17:43;5.30;;;4.80;;
14306;SDS011;7237;49.500;11.400;2022-12-07T01:20:11;5.53;;;5.03;;
14306;SDS011;7237;49.500;11.400;2022-12-07T01:22:38;5.07;;;4.67;;
14306;SDS011;7237;49.500;11.400;2022-12-07T01:25:06;5.27;;;4.77;;
14306;SDS011;7237;49.500;11.400;2022-12-07T01:27:34;5.83;;;5.23;;
14306;SDS011;7237;49.500;11.400;2022-12-07T01:30:03;5.20;;;4.70;;
14306;SDS011;7237;49.500;11.400;2022-12-07T01:32:31;5.50;;;5.00;;
14306;SDS011;7237;49.500;11.400;2022-12-07T01:34:58;5.17;;;4.77;;
14306;SDS011;7237;49.500;11.400;2022-12-07T01:37:25;5.70;;;5.20;;
14306;SDS011;7237;49.500;11.400;2022-12-07T01:39:52;6.20;;;5.40;;
14306;SDS011;7237;49.500;11.400;2022-12-07T01:42:19;6.00;;;5.47;;
14306;SDS011;7237;49.500;11.400;2022-12-07T01:47:33;6.83;;;6.03;;
14306;SDS011;7237;49.500;11.400;2022-12-07T01:50:00;6.13;;;5.17;;
14306;SDS011;7237;49.500;11.400;2022-12-07T01:52:28;5.87;;;5.20;;
14306;SDS011;7237;49.500;11.400;2022-12-07T01:54:57;5.70;;;5.20;;
14306;SDS011;7237;49.500;11.400;2022-12-07T01:57:24;5.73;;;5.23;;
14306;SDS011;7237;49.500;11.400;2022-12-07T01:59:51;5.50;;;5.00;;
14306;SDS011;7237;49.500;11.400;2022-12-07T02:02:20;5.83;;;5.27;;
14306;SDS011;7237;49.500;11.400;2022-12-07T02:04:48;5.90;;;5.40;;
14306;SDS011;7237;49.500;11.400;2022-12-07T02:07:15;6.63;;;5.50;;
14306;SDS011;7237;49.500;11.400;2022-12-07T02:09:43;6.27;;;5.67;;
14306;SDS011;7237;49.500;11.400;2022-12-07T02:12:10;5.83;;;5.30;;
14306;SDS011;7237;49.500;11.400;2022-12-07T02:14:37;6.10;;;5.57;;
14306;SDS011;7237;49.500;11.400;2022-12-07T02:17:08;6.27;;;5.67;;
14306;SDS011;7237;49.500;11.400;2022-12-07T02:19:57;6.40;;;5.37;;
14306;SDS011;7237;49.500;11.400;2022-12-07T02:22:34;6.03;;;5.43;;
14306;SDS011;7237;49.500;11.400;2022-12-07T02:25:08;6.43;;;5.63;;
14306;SDS011;7237;49.500;11.400;2022-12-07T02:27:38;6.23;;;5.63;;
14306;SDS011;7237;49.500;11.400;2022-12-07T02:30:08;7.23;;;5.90;;
14306;SDS011;7237;49.500;11.400;2022-12-07T02:32:41;6.37;;;5.77;;
14306;SDS011;7237;49.500;11.400;2022-12-07T02:35:10;6.30;;;5.70;;
14306;SDS011;7237;49.500;11.400;2022-12-07T02:37:39;6.10;;;5.50;;
14306;SDS011;7237;49.500;11.400;2022-12-07T02:40:09;8.10;;;6.37;;
14306;SDS011;7237;49.500;11.400;2022-12-07T02:42:40;6.40;;;5.80;;
14306;SDS011;7237;49.500;11.400;2022-12-07T02:45:11;7.30;;;6.60;;
14306;SDS011;7237;49.500;11.400;2022-12-07T02:47:39;7.40;;;6.70;;
14306;SDS011;7237;49.500;11.400;2022-12-07T02:50:08;6.30;;;5.70;;
14306;SDS011;7237;49.500;11.400;2022-12-07T02:52:35;6.50;;;5.90;;
14306;SDS011;7237;49.500;11.400;2022-12-07T02:55:03;6.70;;;6.10;;
14306;SDS011;7237;49.500;11.400;2022-12-07T02:57:41;6.53;;;5.93;;
14306;SDS011;7237;49.500;11.400;2022-12-07T03:00:11;6.60;;;6.00;;
14306;SDS011;7237;49.500;11.400;2022-12-07T03:02:43;7.33;;;6.47;;
14306;SDS011;7237;49.500;11.400;2022-12-07T03:05:20;6.80;;;6.10;;
14306;SDS011;7237;49.500;11.400;2022-12-07T03:07:51;7.20;;;6.57;;
14306;SDS011;7237;49.500;11.400;2022-12-07T03:10:22;6.77;;;6.10;;
14306;SDS011;7237;49.500;11.400;2022-12-07T03:12:53;7.67;;;6.97;;
14306;SDS011;7237;49.500;11.400;2022-12-07T03:15:27;8.03;;;7.23;;
14306;SDS011;7237;49.500;11.400;2022-12-07T03:17:56;8.03;;;7.20;;
14306;SDS011;7237;49.500;11.400;2022-12-07T03:20:25;7.87;;;7.07;;
14306;SDS011;7237;49.500;11.400;2022-12-07T03:22:52;7.57;;;6.77;;
14306;SDS011;7237;49.500;11.400;2022-12-07T03:25:20;7.67;;;6.87;;
14306;SDS011;7237;49.500;11.400;2022-12-07T03:27:48;7.83;;;7.03;;
14306;SDS011;7237;49.500;11.400;2022-12-07T03:30:17;8.17;;;6.53;;
14306;SDS011;7237;49.500;11.400;2022-12-07T03:32:47;7.27;;;6.57;;
14306;SDS011;7237;49.500;11.400;2022-12-07T03:35:17;7.50;;;6.80;;
14306;SDS011;7237;49.500;11.400;2022-12-07T03:37:45;7.33;;;6.63;;
14306;SDS011;7237;49.500;11.400;2022-12-07T03:40:16;8.47;;;6.80;;
14306;SDS011;7237;49.500;11.400;2022-12-07T03:42:45;7.73;;;6.87;;
14306;SDS011;7237;49.500;11.400;2022-12-07T03:45:13;7.83;;;7.00;;
14306;SDS011;7237;49.500;11.400;2022-12-07T03:47:42;8.13;;;7.33;;
14306;SDS011;7237;49.500;11.400;2022-12-07T03:50:15;8.03;;;7.23;;
14306;SDS011;7237;49.500;11.400;2022-12-07T03:52:51;7.83;;;6.80;;
14306;SDS011;7237;49.500;11.400;2022-12-07T03:55:20;7.27;;;6.57;;
14306;SDS011;7237;49.500;11.400;2022-12-07T03:57:50;8.83;;;7.47;;
14306;SDS011;7237;49.500;11.400;2022-12-07T04:00:18;8.20;;;7.40;;
14306;SDS011;7237;49.500;11.400;2022-12-07T04:02:45;8.83;;;7.93;;
14306;SDS011;7237;49.500;11.400;2022-12-07T04:05:14;8.13;;;7.33;;
14306;SDS011;7237;49.500;11.400;2022-12-07T04:07:41;8.83;;;7.93;;
14306;SDS011;7237;49.500;11.400;2022-12-07T04:10:09;8.77;;;7.60;;
14306;SDS011;7237;49.500;11.400;2022-12-07T04:12:36;8.83;;;7.43;;
14306;SDS011;7237;49.500;11.400;2022-12-07T04:15:03;10.43;;;8.90;;
14306;SDS011;7237;49.500;11.400;2022-12-07T04:17:31;9.20;;;8.30;;
14306;SDS011;7237;49.500;11.400;2022-12-07T04:19:58;9.17;;;8.27;;
14306;SDS011;7237;49.500;11.400;2022-12-07T04:22:26;8.83;;;7.93;;
14306;SDS011;7237;49.500;11.400;2022-12-07T04:24:53;8.93;;;8.03;;
14306;SDS011;7237;49.500;11.400;2022-12-07T04:27:20;9.30;;;8.37;;
14306;SDS011;7237;49.500;11.400;2022-12-07T04:29:47;10.27;;;8.30;;
14306;SDS011;7237;49.500;11.400;2022-12-07T04:32:14;9.93;;;8.60;;
14306;SDS011;7237;49.500;11.400;2022-12-07T04:34:41;9.00;;;7.97;;
14306;SDS011;7237;49.500;11.400;2022-12-07T04:37:08;10.50;;;8.27;;
14306;SDS011;7237;49.500;11.400;2022-12-07T04:39:37;9.73;;;8.73;;
14306;SDS011;7237;49.500;11.400;2022-12-07T04:42:04;10.13;;;9.13;;
14306;SDS011;7237;49.500;11.400;2022-12-07T04:44:31;9.70;;;8.70;;
14306;SDS011;7237;49.500;11.400;2022-12-07T04:46:58;9.97;;;8.83;;
14306;SDS011;7237;49.500;11.400;2022-12-07T04:49:25;9.73;;;8.73;;
14306;SDS011;7237;49.500;11.400;2022-12-07T04:51:52;10.20;;;8.53;;
14306;SDS011;7237;49.500;11.400;2022-12-07T04:54:20;9.97;;;8.63;;
14306;SDS011;7237;49.500;11.400;2022-12-07T04:56:48;10.23;;;8.47;;
14306;SDS011;7237;49.500;11.400;2022-12-07T04:59:16;10.00;;;9.00;;
14306;SDS011;7237;49.500;11.400;2022-12-07T05:01:43;9.87;;;8.87;;
14306;SDS011;7237;49.500;11.400;2022-12-07T05:04:11;11.00;;;9.70;;
14306;SDS011;7237;49.500;11.400;2022-12-07T05:06:38;9.83;;;8.80;;
14306;SDS011;7237;49.500;11.400;2022-12-07T05:09:05;9.57;;;8.57;;
14306;SDS011;7237;49.500;11.400;2022-12-07T05:11:32;10.00;;;9.00;;
14306;SDS011;7237;49.500;11.400;2022-12-07T05:14:08;10.17;;;9.07;;
14306;SDS011;7237;49.500;11.400;2022-12-07T05:16:36;10.07;;;9.07;;
14306;SDS011;7237;49.500;11.400;2022-12-07T05:19:03;11.50;;;9.17;;
14306;SDS011;7237;49.500;11.400;2022-12-07T05:21:30;10.47;;;9.37;;
14306;SDS011;7237;49.500;11.400;2022-12-07T05:23:57;9.70;;;8.70;;
14306;SDS011;7237;49.500;11.400;2022-12-07T05:26:26;11.53;;;9.63;;
14306;SDS011;7237;49.500;11.400;2022-12-07T05:28:54;10.27;;;9.13;;
14306;SDS011;7237;49.500;11.400;2022-12-07T05:31:23;10.83;;;9.13;;
14306;SDS011;7237;49.500;11.400;2022-12-07T05:33:50;11.70;;;9.33;;
14306;SDS011;7237;49.500;11.400;2022-12-07T05:36:18;14.10;;;9.60;;
14306;SDS011;7237;49.500;11.400;2022-12-07T05:38:45;10.47;;;9.37;;
14306;SDS011;7237;49.500;11.400;2022-12-07T05:41:16;11.50;;;9.87;;
14306;SDS011;7237;49.500;11.400;2022-12-07T05:44:01;10.70;;;9.60;;
14306;SDS011;7237;49.500;11.400;2022-12-07T05:46:29;10.97;;;9.70;;
14306;SDS011;7237;49.500;11.400;2022-12-07T05:48:56;11.90;;;10.13;;
14306;SDS011;7237;49.500;11.400;2022-12-07T05:51:23;9.10;;;8.20;;
14306;SDS011;7237;49.500;11.400;2022-12-07T05:53:50;9.53;;;8.53;;
14306;SDS011;7237;49.500;11.400;2022-12-07T05:56:17;11.93;;;8.30;;
14306;SDS011;7237;49.500;11.400;2022-12-07T05:58:44;9.70;;;8.53;;
14306;SDS011;7237;49.500;11.400;2022-12-07T06:01:31;9.07;;;8.17;;
14306;SDS011;7237;49.500;11.400;2022-12-07T06:03:58;10.10;;;9.10;;
14306;SDS011;7237;49.500;11.400;2022-12-07T06:06:25;10.70;;;9.57;;
14306;SDS011;7237;49.500;11.400;2022-12-07T06:08:52;12.23;;;9.60;;
14306;SDS011;7237;49.500;11.400;2022-12-07T06:11:19;10.77;;;9.67;;
14306;SDS011;7237;49.500;11.400;2022-12-07T06:14:04;12.60;;;9.93;;
14306;SDS011;7237;49.500;11.400;2022-12-07T06:16:32;10.30;;;9.10;;
14306;SDS011;7237;49.500;11.400;2022-12-07T06:19:00;11.27;;;9.53;;
14306;SDS011;7237;49.500;11.400;2022-12-07T06:21:27;11.50;;;9.97;;
14306;SDS011;7237;49.500;11.400;2022-12-07T06:23:54;11.77;;;10.00;;
14306;SDS011;7237;49.500;11.400;2022-12-07T06:26:21;10.33;;;9.33;;
14306;SDS011;7237;49.500;11.400;2022-12-07T06:28:48;10.87;;;9.77;;
14306;SDS011;7237;49.500;11.400;2022-12-07T06:31:15;11.37;;;9.70;;
14306;SDS011;7237;49.500;11.400;2022-12-07T06:33:44;11.63;;;9.63;;
14306;SDS011;7237;49.500;11.400;2022-12-07T06:36:11;9.67;;;8.67;;
14306;SDS011;7237;49.500;11.400;2022-12-07T06:38:38;10.83;;;9.70;;
14306;SDS011;7237;49.500;11.400;2022-12-07T06:41:05;9.97;;;8.93;;
14306;SDS011;7237;49.500;11.400;2022-12-07T06:43:32;10.03;;;9.03;;
14306;SDS011;7237;49.500;11.400;2022-12-07T06:45:59;10.37;;;8.73;;
14306;SDS011;7237;49.500;11.400;2022-12-07T06:48:26;10.30;;;9.23;;
14306;SDS011;7237;49.500;11.400;2022-12-07T06:50:55;10.10;;;8.87;;
14306;SDS011;7237;49.500;11.400;2022-12-07T06:53:22;10.13;;;9.13;;
14306;SDS011;7237;49.500;11.400;2022-12-07T06:55:49;10.70;;;9.60;;
14306;SDS011;7237;49.500;11.400;2022-12-07T06:58:16;11.33;;;9.83;;
14306;SDS011;7237;49.500;11.400;2022-12-07T07:00:44;10.30;;;9.23;;
14306;SDS011;7237;49.500;11.400;2022-12-07T07:03:11;11.27;;;9.50;;
14306;SDS011;7237;49.500;11.400;2022-12-07T07:05:38;11.80;;;9.87;;
14306;SDS011;7237;49.500;11.400;2022-12-07T07:08:06;11.83;;;10.33;;
14306;SDS011;7237;49.500;11.400;2022-12-07T07:10:34;11.20;;;9.93;;
14306;SDS011;7237;49.500;11.400;2022-12-07T07:13:01;11.33;;;10.03;;
14306;SDS011;7237;49.500;11.400;2022-12-07T07:15:28;10.17;;;9.17;;
14306;SDS011;7237;49.500;11.400;2022-12-07T07:17:55;10.83;;;9.73;;
14306;SDS011;7237;49.500;11.400;2022-12-07T07:20:22;11.80;;;9.67;;
14306;SDS011;7237;49.500;11.400;2022-12-07T07:22:50;12.83;;;9.60;;
14306;SDS011;7237;49.500;11.400;2022-12-07T07:25:18;10.50;;;9.43;;
14306;SDS011;7237;49.500;11.400;2022-12-07T07:27:45;10.70;;;9.60;;
14306;SDS011;7237;49.500;11.400;2022-12-07T07:30:13;10.63;;;9.50;;
14306;SDS011;7237;49.500;11.400;2022-12-07T07:32:40;10.53;;;9.33;;
14306;SDS011;7237;49.500;11.400;2022-12-07T07:35:07;12.63;;;9.67;;
14306;SDS011;7237;49.500;11.400;2022-12-07T07:37:34;11.10;;;9.63;;
14306;SDS011;7237;49.500;11.400;2022-12-07T07:40:01;11.50;;;9.63;;
14306;SDS011;7237;49.500;11.400;2022-12-07T07:42:30;10.20;;;8.87;;
14306;SDS011;7237;49.500;11.400;2022-12-07T07:44:57;11.50;;;10.07;;
14306;SDS011;7237;49.500;11.400;2022-12-07T07:47:24;10.93;;;9.37;;
14306;SDS011;7237;49.500;11.400;2022-12-07T07:49:51;11.53;;;9.90;;
14306;SDS011;7237;49.500;11.400;2022-12-07T07:52:18;11.13;;;9.73;;
14306;SDS011;7237;49.500;11.400;2022-12-07T07:54:45;12.50;;;10.60;;
14306;SDS011;7237;49.500;11.400;2022-12-07T07:57:12;11.07;;;9.93;;
14306;SDS011;7237;49.500;11.400;2022-12-07T07:59:41;11.57;;;9.83;;
14306;SDS011;7237;49.500;11.400;2022-12-07T08:02:08;11.40;;;9.60;;
14306;SDS011;7237;49.500;11.400;2022-12-07T08:04:36;10.80;;;9.40;;
14306;SDS011;7237;49.500;11.400;2022-12-07T08:07:03;11.07;;;9.67;;
14306;SDS011;7237;49.500;11.400;2022-12-07T08:09:30;10.23;;;9.23;;
14306;SDS011;7237;49.500;11.400;2022-12-07T08:11:57;11.57;;;10.37;;
14306;SDS011;7237;49.500;11.400;2022-12-07T08:14:24;11.63;;;9.83;;
14306;SDS011;7237;49.500;11.400;2022-12-07T08:16:53;10.07;;;8.87;;
14306;SDS011;7237;49.500;11.400;2022-12-07T08:19:20;12.53;;;10.20;;
14306;SDS011;7237;49.500;11.400;2022-12-07T08:21:48;10.50;;;9.50;;
14306;SDS011;7237;49.500;11.400;2022-12-07T08:24:15;11.53;;;10.33;;
14306;SDS011;7237;49.500;11.400;2022-12-07T08:26:42;10.27;;;9.17;;
14306;SDS011;7237;49.500;11.400;2022-12-07T08:29:09;12.00;;;9.50;;
14306;SDS011;7237;49.500;11.400;2022-12-07T08:31:36;10.23;;;9.17;;
14306;SDS011;7237;49.500;11.400;2022-12-07T08:34:04;10.80;;;9.70;;
14306;SDS011;7237;49.500;11.400;2022-12-07T08:36:32;11.43;;;9.93;;
14306;SDS011;7237;49.500;11.400;2022-12-07T08:38:59;11.27;;;9.53;;
14306;SDS011;7237;49.500;11.400;2022-12-07T08:41:26;12.43;;;10.80;;
14306;SDS011;7237;49.500;11.400;2022-12-07T08:43:53;11.17;;;9.93;;
14306;SDS011;7237;49.500;11.400;2022-12-07T08:46:21;11.60;;;9.90;;
14306;SDS011;7237;49.500;11.400;2022-12-07T08:48:51;13.47;;;10.73;;
14306;SDS011;7237;49.500;11.400;2022-12-07T08:51:21;10.50;;;9.40;;
14306;SDS011;7237;49.500;11.400;2022-12-07T08:53:48;11.47;;;10.20;;
14306;SDS011;7237;49.500;11.400;2022-12-07T08:56:16;11.83;;;10.17;;
14306;SDS011;7237;49.500;11.400;2022-12-07T08:58:43;12.80;;;10.87;;
14306;SDS011;7237;49.500;11.400;2022-12-07T09:01:11;11.80;;;10.60;;
14306;SDS011;7237;49.500;11.400;2022-12-07T09:03:38;11.70;;;10.50;;
14306;SDS011;7237;49.500;11.400;2022-12-07T09:06:05;11.87;;;10.57;;
14306;SDS011;7237;49.500;11.400;2022-12-07T09:08:34;11.73;;;10.10;;
14306;SDS011;7237;49.500;11.400;2022-12-07T09:11:03;11.90;;;10.03;;
14306;SDS011;7237;49.500;11.400;2022-12-07T09:13:30;12.60;;;10.73;;
14306;SDS011;7237;49.500;11.400;2022-12-07T09:15:57;11.80;;;10.50;;
14306;SDS011;7237;49.500;11.400;2022-12-07T09:18:24;13.13;;;10.70;;
14306;SDS011;7237;49.500;11.400;2022-12-07T09:20:51;11.97;;;10.77;;
14306;SDS011;7237;49.500;11.400;2022-12-07T09:23:18;12.70;;;11.10;;
14306;SDS011;7237;49.500;11.400;2022-12-07T09:25:47;12.83;;;10.97;;
14306;SDS011;7237;49.500;11.400;2022-12-07T09:28:14;14.17;;;11.47;;
14306;SDS011;7237;49.500;11.400;2022-12-07T09:30:44;12.80;;;10.57;;
14306;SDS011;7237;49.500;11.400;2022-12-07T09:33:11;12.63;;;11.27;;
14306;SDS011;7237;49.500;11.400;2022-12-07T09:35:43;12.73;;;10.80;;
14306;SDS011;7237;49.500;11.400;2022-12-07T09:38:10;13.37;;;11.60;;
14306;SDS011;7237;49.500;11.400;2022-12-07T09:40:37;13.20;;;11.23;;
14306;SDS011;7237;49.500;11.400;2022-12-07T09:43:10;12.37;;;10.63;;
14306;SDS011;7237;49.500;11.400;2022-12-07T09:45:38;13.40;;;11.23;;
14306;SDS011;7237;49.500;11.400;2022-12-07T09:48:05;12.47;;;10.97;;
14306;SDS011;7237;49.500;11.400;2022-12-07T09:50:35;12.87;;;11.03;;
14306;SDS011;7237;49.500;11.400;2022-12-07T09:53:05;14.10;;;10.87;;
14306;SDS011;7237;49.500;11.400;2022-12-07T09:55:33;13.70;;;11.30;;
14306;SDS011;7237;49.500;11.400;2022-12-07T09:58:00;12.47;;;11.10;;
14306;SDS011;7237;49.500;11.400;2022-12-07T10:00:29;12.63;;;10.57;;
14306;SDS011;7237;49.500;11.400;2022-12-07T10:02:57;12.47;;;11.17;;
14306;SDS011;7237;49.500;11.400;2022-12-07T10:05:26;15.93;;;11.60;;
14306;SDS011;7237;49.500;11.400;2022-12-07T10:07:54;13.23;;;11.00;;
14306;SDS011;7237;49.500;11.400;2022-12-07T10:10:23;12.30;;;10.63;;
14306;SDS011;7237;49.500;11.400;2022-12-07T10:12:58;13.70;;;10.90;;
14306;SDS011;7237;49.500;11.400;2022-12-07T10:18:15;11.00;;;9.80;;
14306;SDS011;7237;49.500;11.400;2022-12-07T10:20:43;14.07;;;10.40;;
14306;SDS011;7237;49.500;11.400;2022-12-07T10:23:14;14.17;;;10.67;;
14306;SDS011;7237;49.500;11.400;2022-12-07T10:25:41;12.07;;;10.10;;
14306;SDS011;7237;49.500;11.400;2022-12-07T10:28:15;12.00;;;10.37;;
14306;SDS011;7237;49.500;11.400;2022-12-07T10:30:49;12.03;;;10.03;;
14306;SDS011;7237;49.500;11.400;2022-12-07T10:33:34;11.83;;;9.80;;
14306;SDS011;7237;49.500;11.400;2022-12-07T10:36:14;12.10;;;10.43;;
14306;SDS011;7237;49.500;11.400;2022-12-07T10:38:44;12.30;;;9.93;;
14306;SDS011;7237;49.500;11.400;2022-12-07T10:41:11;10.20;;;9.10;;
14306;SDS011;7237;49.500;11.400;2022-12-07T10:43:45;10.33;;;8.77;;
14306;SDS011;7237;49.500;11.400;2022-12-07T10:46:22;10.00;;;8.97;;
14306;SDS011;7237;49.500;11.400;2022-12-07T10:48:58;9.47;;;8.13;;
14306;SDS011;7237;49.500;11.400;2022-12-07T10:51:27;8.73;;;7.83;;
14306;SDS011;7237;49.500;11.400;2022-12-07T10:54:01;10.03;;;8.77;;
14306;SDS011;7237;49.500;11.400;2022-12-07T10:56:40;9.13;;;8.07;;
14306;SDS011;7237;49.500;11.400;2022-12-07T11:01:58;9.27;;;8.13;;
14306;SDS011;7237;49.500;11.400;2022-12-07T11:04:31;9.57;;;8.57;;
14306;SDS011;7237;49.500;11.400;2022-12-07T11:07:02;10.70;;;8.60;;
14306;SDS011;7237;49.500;11.400;2022-12-07T11:12:16;10.60;;;9.47;;
14306;SDS011;7237;49.500;11.400;2022-12-07T11:14:48;9.70;;;8.10;;
14306;SDS011;7237;49.500;11.400;2022-12-07T11:17:20;11.63;;;9.20;;
14306;SDS011;7237;49.500;11.400;2022-12-07T11:19:54;9.93;;;8.47;;
14306;SDS011;7237;49.500;11.400;2022-12-07T11:22:29;10.60;;;8.73;;
14306;SDS011;7237;49.500;11.400;2022-12-07T11:25:01;10.50;;;8.10;;
14306;SDS011;7237;49.500;11.400;2022-12-07T11:27:32;11.20;;;8.50;;
14306;SDS011;7237;49.500;11.400;2022-12-07T11:30:08;9.37;;;8.47;;
14306;SDS011;7237;49.500;11.400;2022-12-07T11:32:42;9.77;;;8.17;;
14306;SDS011;7237;49.500;11.400;2022-12-07T11:35:16;10.13;;;9.13;;
14306;SDS011;7237;49.500;11.400;2022-12-07T11:37:45;10.50;;;9.37;;
14306;SDS011;7237;49.500;11.400;2022-12-07T11:40:15;9.80;;;8.80;;
14306;SDS011;7237;49.500;11.400;2022-12-07T11:42:45;10.37;;;9.13;;
14306;SDS011;7237;49.500;11.400;2022-12-07T11:45:17;9.47;;;8.47;;
14306;SDS011;7237;49.500;11.400;2022-12-07T11:47:47;10.70;;;8.33;;
14306;SDS011;7237;49.500;11.400;2022-12-07T11:50:23;9.53;;;8.53;;
14306;SDS011;7237;49.500;11.400;2022-12-07T11:52:52;9.60;;;8.60;;
14306;SDS011;7237;49.500;11.400;2022-12-07T11:55:27;9.77;;;8.17;;
14306;SDS011;7237;49.500;11.400;2022-12-07T11:57:58;9.70;;;8.50;;
14306;SDS011;7237;49.500;11.400;2022-12-07T12:00:27;13.80;;;9.00;;
14306;SDS011;7237;49.500;11.400;2022-12-07T12:02:56;10.90;;;8.80;;
14306;SDS011;7237;49.500;11.400;2022-12-07T12:05:26;9.23;;;8.23;;
14306;SDS011;7237;49.500;11.400;2022-12-07T12:07:56;9.53;;;8.53;;
14306;SDS011;7237;49.500;11.400;2022-12-07T12:10:27;9.90;;;8.90;;
14306;SDS011;7237;49.500;11.400;2022-12-07T12:15:58;9.53;;;8.53;;
14306;SDS011;7237;49.500;11.400;2022-12-07T12:18:45;9.93;;;7.97;;
14306;SDS011;7237;49.500;11.400;2022-12-07T12:21:20;8.43;;;7.37;;
14306;SDS011;7237;49.500;11.400;2022-12-07T12:23:49;10.50;;;8.13;;
14306;SDS011;7237;49.500;11.400;2022-12-07T12:26:17;9.90;;;8.33;;
14306;SDS011;7237;49.500;11.400;2022-12-07T12:28:50;8.80;;;7.80;;
14306;SDS011;7237;49.500;11.400;2022-12-07T12:31:28;9.23;;;8.23;;
14306;SDS011;7237;49.500;11.400;2022-12-07T12:34:01;9.57;;;8.50;;
14306;SDS011;7237;49.500;11.400;2022-12-07T12:36:44;13.10;;;11.70;;
14306;SDS011;7237;49.500;11.400;2022-12-07T12:39:12;8.97;;;7.90;;
14306;SDS011;7237;49.500;11.400;2022-12-07T12:44:40;8.87;;;7.97;;
14306;SDS011;7237;49.500;11.400;2022-12-07T12:55:19;8.63;;;7.70;;
14306;SDS011;7237;49.500;11.400;2022-12-07T12:57:47;10.47;;;8.10;;
14306;SDS011;7237;49.500;11.400;2022-12-07T13:00:15;8.37;;;7.50;;
14306;SDS011;7237;49.500;11.400;2022-12-07T13:02:47;8.10;;;6.83;;
14306;SDS011;7237;49.500;11.400;2022-12-07T13:05:16;8.23;;;7.13;;
14306;SDS011;7237;49.500;11.400;2022-12-07T13:07:55;8.83;;;7.93;;
14306;SDS011;7237;49.500;11.400;2022-12-07T13:13:28;11.03;;;8.37;;
14306;SDS011;7237;49.500;11.400;2022-12-07T13:15:56;10.43;;;7.93;;
14306;SDS011;7237;49.500;11.400;2022-12-07T13:18:42;8.63;;;7.33;;
14306;SDS011;7237;49.500;11.400;2022-12-07T13:23:54;8.20;;;7.40;;
14306;SDS011;7237;49.500;11.400;2022-12-07T13:26:22;9.33;;;7.97;;
14306;SDS011;7237;49.500;11.400;2022-12-07T13:28:52;7.97;;;7.17;;
14306;SDS011;7237;49.500;11.400;2022-12-07T13:31:31;7.63;;;6.83;;
14306;SDS011;7237;49.500;11.400;2022-12-07T13:33:59;8.70;;;7.00;;
14306;SDS011;7237;49.500;11.400;2022-12-07T13:36:27;8.20;;;7.40;;
14306;SDS011;7237;49.500;11.400;2022-12-07T13:38:57;8.43;;;7.53;;
14306;SDS011;7237;49.500;11.400;2022-12-07T13:41:25;8.77;;;7.87;;
14306;SDS011;7237;49.500;11.400;2022-12-07T13:44:03;7.93;;;7.13;;
14306;SDS011;7237;49.500;11.400;2022-12-07T13:46:32;7.80;;;6.67;;
14306;SDS011;7237;49.500;11.400;2022-12-07T13:49:02;8.00;;;7.20;;
14306;SDS011;7237;49.500;11.400;2022-12-07T13:51:33;8.57;;;7.47;;
14306;SDS011;7237;49.500;11.400;2022-12-07T13:54:06;9.23;;;8.23;;
14306;SDS011;7237;49.500;11.400;2022-12-07T13:56:35;9.23;;;7.93;;
14306;SDS011;7237;49.500;11.400;2022-12-07T13:59:07;8.10;;;7.30;;
14306;SDS011;7237;49.500;11.400;2022-12-07T14:01:37;8.30;;;7.07;;
14306;SDS011;7237;49.500;11.400;2022-12-07T14:06:47;7.27;;;6.47;;
14306;SDS011;7237;49.500;11.400;2022-12-07T14:09:17;7.20;;;6.50;;
14306;SDS011;7237;49.500;11.400;2022-12-07T14:11:44;8.40;;;7.60;;
14306;SDS011;7237;49.500;11.400;2022-12-07T14:14:15;8.93;;;6.77;;
14306;SDS011;7237;49.500;11.400;2022-12-07T14:16:43;8.27;;;7.27;;
14306;SDS011;7237;49.500;11.400;2022-12-07T14:22:06;9.83;;;7.70;;
14306;SDS011;7237;49.500;11.400;2022-12-07T14:24:40;8.70;;;7.63;;
14306;SDS011;7237;49.500;11.400;2022-12-07T14:27:15;8.23;;;7.43;;
14306;SDS011;7237;49.500;11.400;2022-12-07T14:29:45;9.63;;;7.87;;
14306;SDS011;7237;49.500;11.400;2022-12-07T14:32:20;9.63;;;8.63;;
14306;SDS011;7237;49.500;11.400;2022-12-07T14:34:56;9.50;;;8.17;;
14306;SDS011;7237;49.500;11.400;2022-12-07T14:37:23;9.17;;;8.27;;
14306;SDS011;7237;49.500;11.400;2022-12-07T14:39:50;8.47;;;7.63;;
14306;SDS011;7237;49.500;11.400;2022-12-07T14:42:17;11.97;;;8.77;;
14306;SDS011;7237;49.500;11.400;2022-12-07T14:44:46;10.93;;;8.30;;
14306;SDS011;7237;49.500;11.400;2022-12-07T14:47:13;9.07;;;8.00;;
14306;SDS011;7237;49.500;11.400;2022-12-07T14:49:40;9.37;;;8.43;;
14306;SDS011;7237;49.500;11.400;2022-12-07T14:52:09;9.97;;;8.80;;
14306;SDS011;7237;49.500;11.400;2022-12-07T14:54:40;9.60;;;8.23;;
14306;SDS011;7237;49.500;11.400;2022-12-07T14:57:08;9.70;;;7.87;;
14306;SDS011;7237;49.500;11.400;2022-12-07T14:59:36;11.93;;;8.13;;
14306;SDS011;7237;49.500;11.400;2022-12-07T15:02:05;8.60;;;7.10;;
14306;SDS011;7237;49.500;11.400;2022-12-07T15:04:32;8.87;;;7.60;;
14306;SDS011;7237;49.500;11.400;2022-12-07T15:07:00;10.77;;;7.30;;
14306;SDS011;7237;49.500;11.400;2022-12-07T15:09:27;9.83;;;7.67;;
14306;SDS011;7237;49.500;11.400;2022-12-07T15:11:55;8.40;;;7.00;;
14306;SDS011;7237;49.500;11.400;2022-12-07T15:14:22;9.50;;;6.70;;
14306;SDS011;7237;49.500;11.400;2022-12-07T15:16:49;7.87;;;6.93;;
14306;SDS011;7237;49.500;11.400;2022-12-07T15:19:17;9.47;;;8.27;;
14306;SDS011;7237;49.500;11.400;2022-12-07T15:21:47;10.70;;;9.60;;
14306;SDS011;7237;49.500;11.400;2022-12-07T15:24:14;12.07;;;9.97;;
14306;SDS011;7237;49.500;11.400;2022-12-07T15:26:41;11.73;;;10.40;;
14306;SDS011;7237;49.500;11.400;2022-12-07T15:29:09;11.43;;;9.90;;